createdAt,value
2017-07-17T00:01:58.126Z,6.43
2017-07-17T00:04:25.675Z,5.73
2017-07-17T00:06:53.906Z,6.33
2017-07-17T00:09:21.526Z,6.10
2017-07-17T00:11:49.066Z,5.93
2017-07-17T00:14:16.610Z,6.73
2017-07-17T00:16:44.364Z,6.60
2017-07-17T00:19:11.914Z,6.37
2017-07-17T00:21:39.455Z,6.20
2017-07-17T00:24:07.035Z,5.77
2017-07-17T00:26:34.574Z,6.60
2017-07-17T00:29:02.900Z,7.40
2017-07-17T00:31:30.462Z,6.20
2017-07-17T00:33:58.002Z,6.43
2017-07-17T00:36:25.547Z,6.90
2017-07-17T00:38:53.155Z,6.10
2017-07-17T00:41:20.697Z,6.13
2017-07-17T00:43:48.241Z,6.50
2017-07-17T00:46:15.816Z,7.27
2017-07-17T00:48:43.374Z,6.20
2017-07-17T00:51:10.914Z,6.83
2017-07-17T00:53:38.494Z,6.47
2017-07-17T00:56:06.030Z,5.70
2017-07-17T00:58:33.574Z,6.17
2017-07-17T01:01:01.182Z,6.17
2017-07-17T01:03:28.736Z,6.77
2017-07-17T01:05:56.273Z,6.47
2017-07-17T01:08:24.367Z,5.63
2017-07-17T01:10:51.924Z,6.37
2017-07-17T01:13:19.463Z,5.37
2017-07-17T01:15:47.074Z,5.53
2017-07-17T01:18:14.610Z,6.10
2017-07-17T01:20:42.145Z,5.80
2017-07-17T01:23:09.753Z,6.20
2017-07-17T01:25:37.327Z,6.83
2017-07-17T01:28:04.855Z,7.00
2017-07-17T01:30:32.426Z,7.23
2017-07-17T01:32:59.967Z,6.63
2017-07-17T01:35:27.505Z,7.10
2017-07-17T01:37:55.078Z,7.23
2017-07-17T01:40:22.617Z,7.20
2017-07-17T01:42:50.158Z,6.07
2017-07-17T01:45:17.770Z,6.73
2017-07-17T01:47:45.310Z,6.53
2017-07-17T01:50:12.871Z,6.90
2017-07-17T01:52:40.467Z,6.57
2017-07-17T01:55:08.010Z,6.23
2017-07-17T01:57:35.565Z,6.70
2017-07-17T02:00:03.186Z,6.73
2017-07-17T02:02:30.789Z,6.80
2017-07-17T02:04:58.331Z,6.40
2017-07-17T02:07:25.942Z,6.73
2017-07-17T02:09:53.934Z,6.80
2017-07-17T02:12:22.257Z,5.73
2017-07-17T02:14:49.826Z,6.67
2017-07-17T02:17:17.372Z,7.63
2017-07-17T02:19:44.918Z,7.00
2017-07-17T02:22:12.530Z,6.60
2017-07-17T02:24:40.074Z,5.90
2017-07-17T02:27:07.624Z,6.27
2017-07-17T02:29:35.234Z,6.70
2017-07-17T02:32:02.778Z,6.30
2017-07-17T02:34:30.322Z,6.43
2017-07-17T02:36:57.890Z,6.80
2017-07-17T02:39:25.434Z,6.87
2017-07-17T02:41:52.975Z,6.00
2017-07-17T02:44:20.545Z,6.83
2017-07-17T02:46:48.108Z,6.53
2017-07-17T02:49:15.647Z,7.33
2017-07-17T02:51:43.263Z,6.60
2017-07-17T02:54:10.806Z,6.90
2017-07-17T02:56:38.350Z,6.67
2017-07-17T02:59:05.924Z,6.53
2017-07-17T03:01:33.461Z,5.70
2017-07-17T03:04:00.998Z,5.90
2017-07-17T03:06:28.575Z,5.77
2017-07-17T03:08:56.119Z,6.47
2017-07-17T03:11:23.982Z,6.30
2017-07-17T03:13:51.614Z,5.87
2017-07-17T03:16:19.166Z,6.57
2017-07-17T03:18:46.710Z,5.73
2017-07-17T03:21:14.275Z,6.23
2017-07-17T03:24:05.590Z,5.87
2017-07-17T03:26:33.213Z,6.30
2017-07-17T03:29:00.753Z,6.60
2017-07-17T03:31:28.292Z,5.47
2017-07-17T03:33:56.669Z,6.00
2017-07-17T03:36:24.987Z,5.80
2017-07-17T03:38:52.530Z,6.07
2017-07-17T03:41:20.102Z,5.47
2017-07-17T03:43:47.646Z,5.83
2017-07-17T03:46:15.209Z,5.20
2017-07-17T03:48:43.555Z,5.47
2017-07-17T03:51:11.105Z,5.70
2017-07-17T03:53:38.649Z,7.20
2017-07-17T03:56:06.251Z,6.50
2017-07-17T03:58:33.793Z,5.70
2017-07-17T04:01:01.345Z,6.70
2017-07-17T04:03:28.938Z,6.23
2017-07-17T04:05:57.253Z,8.70
2017-07-17T04:08:24.802Z,6.30
2017-07-17T04:10:52.390Z,6.20
2017-07-17T04:13:20.370Z,6.30
2017-07-17T04:15:47.910Z,7.50
2017-07-17T04:18:15.514Z,7.07
2017-07-17T04:20:43.831Z,5.60
2017-07-17T04:23:11.377Z,5.47
2017-07-17T04:25:38.945Z,5.77
2017-07-17T04:28:06.491Z,5.00
2017-07-17T04:30:34.033Z,5.20
2017-07-17T04:33:01.786Z,5.10
2017-07-17T04:35:29.326Z,5.30
2017-07-17T04:37:56.869Z,5.77
2017-07-17T04:40:24.482Z,6.30
2017-07-17T04:42:52.794Z,5.47
2017-07-17T04:45:20.342Z,5.90
2017-07-17T04:47:47.915Z,5.80
2017-07-17T04:50:15.461Z,5.90
2017-07-17T04:52:43.013Z,5.03
2017-07-17T04:55:11.345Z,5.13
2017-07-17T04:57:38.890Z,5.20
2017-07-17T05:00:06.434Z,5.10
2017-07-17T05:02:34.046Z,5.50
2017-07-17T05:05:01.593Z,5.63
2017-07-17T05:07:30.541Z,6.60
2017-07-17T05:09:58.130Z,5.33
2017-07-17T05:12:25.684Z,5.20
2017-07-17T05:14:53.559Z,4.73
2017-07-17T05:17:21.135Z,5.03
2017-07-17T05:19:48.684Z,4.73
2017-07-17T05:22:16.224Z,5.00
2017-07-17T05:24:43.870Z,4.93
2017-07-17T05:27:11.409Z,5.20
2017-07-17T05:29:39.721Z,4.90
2017-07-17T05:32:07.287Z,3.93
2017-07-17T05:34:34.842Z,4.67
2017-07-17T05:37:02.387Z,4.20
2017-07-17T05:39:30.007Z,5.07
2017-07-17T05:41:57.550Z,5.17
2017-07-17T05:44:25.091Z,4.60
2017-07-17T05:46:52.706Z,5.20
2017-07-17T05:49:20.243Z,4.47
2017-07-17T05:51:47.790Z,3.90
2017-07-17T05:54:15.354Z,4.57
2017-07-17T05:56:42.898Z,3.90
2017-07-17T05:59:10.437Z,3.83
2017-07-17T06:01:38.008Z,4.30
2017-07-17T06:04:05.553Z,4.20
2017-07-17T06:06:33.099Z,3.67
2017-07-17T06:09:00.879Z,3.30
2017-07-17T06:11:28.418Z,2.90
2017-07-17T06:13:55.966Z,2.90
2017-07-17T06:16:23.980Z,2.60
2017-07-17T06:18:51.525Z,3.20
2017-07-17T06:21:19.069Z,3.20
2017-07-17T06:23:46.661Z,3.40
2017-07-17T06:26:14.205Z,2.80
2017-07-17T06:28:41.747Z,3.00
2017-07-17T06:31:09.353Z,3.03
2017-07-17T06:33:36.896Z,2.70
2017-07-17T06:36:04.442Z,2.70
2017-07-17T06:38:32.017Z,2.47
2017-07-17T06:40:59.576Z,2.20
2017-07-17T06:43:27.122Z,2.57
2017-07-17T06:45:54.892Z,2.30
2017-07-17T06:48:22.438Z,2.20
2017-07-17T06:50:50.053Z,2.00
2017-07-17T06:53:17.682Z,2.00
2017-07-17T06:55:45.230Z,2.37
2017-07-17T06:58:12.803Z,1.80
2017-07-17T07:00:40.371Z,2.20
2017-07-17T07:03:07.923Z,2.10
2017-07-17T07:05:35.469Z,2.70
2017-07-17T07:08:03.045Z,2.00
2017-07-17T07:10:30.587Z,1.60
2017-07-17T07:12:58.134Z,1.90
2017-07-17T07:15:25.814Z,1.73
2017-07-17T07:17:53.667Z,1.70
2017-07-17T07:20:21.215Z,1.63
2017-07-17T07:22:49.553Z,1.70
2017-07-17T07:25:17.094Z,1.60
2017-07-17T07:27:44.638Z,1.73
2017-07-17T07:30:12.213Z,1.30
2017-07-17T07:32:39.759Z,2.67
2017-07-17T07:35:07.306Z,1.70
2017-07-17T07:37:35.065Z,1.63
2017-07-17T07:40:02.601Z,1.43
2017-07-17T07:42:30.143Z,1.17
2017-07-17T07:44:58.895Z,1.30
2017-07-17T07:47:26.460Z,1.33
2017-07-17T07:49:54.011Z,1.23
2017-07-17T07:52:21.629Z,1.30
2017-07-17T07:54:49.174Z,1.40
2017-07-17T07:57:16.714Z,1.40
2017-07-17T07:59:44.337Z,1.27
2017-07-17T08:02:11.882Z,1.30
2017-07-17T08:04:39.422Z,1.30
2017-07-17T08:07:06.989Z,1.30
2017-07-17T08:09:34.530Z,1.27
2017-07-17T08:12:02.072Z,1.10
2017-07-17T08:14:29.638Z,1.30
2017-07-17T08:16:57.186Z,1.03
2017-07-17T08:19:24.791Z,1.00
2017-07-17T08:21:52.410Z,1.20
2017-07-17T08:24:19.952Z,1.43
2017-07-17T08:26:47.494Z,1.53
2017-07-17T08:29:15.077Z,1.20
2017-07-17T08:31:42.622Z,1.13
2017-07-17T08:34:10.182Z,1.00
2017-07-17T08:36:37.763Z,1.20
2017-07-17T08:39:05.301Z,1.30
2017-07-17T08:41:32.848Z,1.10
2017-07-17T08:44:01.229Z,1.13
2017-07-17T08:46:29.545Z,1.43
2017-07-17T08:48:57.086Z,1.47
2017-07-17T08:51:24.669Z,1.20
2017-07-17T08:53:52.219Z,1.30
2017-07-17T08:56:19.767Z,1.30
2017-07-17T08:58:47.389Z,1.33
2017-07-17T09:01:14.938Z,1.30
2017-07-17T09:03:42.481Z,1.00
2017-07-17T09:06:10.104Z,1.17
2017-07-17T09:08:37.647Z,1.07
2017-07-17T09:11:05.962Z,1.20
2017-07-17T09:13:33.538Z,1.20
2017-07-17T09:16:01.081Z,1.10
2017-07-17T09:18:28.617Z,1.20
2017-07-17T09:20:56.478Z,1.20
2017-07-17T09:23:24.021Z,1.13
2017-07-17T09:25:51.581Z,0.93
2017-07-17T09:28:19.188Z,1.30
2017-07-17T09:30:46.725Z,0.83
2017-07-17T09:33:14.266Z,1.00
2017-07-17T09:35:41.834Z,1.20
2017-07-17T09:38:10.143Z,1.07
2017-07-17T09:40:37.682Z,1.10
2017-07-17T09:43:06.026Z,1.30
2017-07-17T09:45:33.566Z,1.00
2017-07-17T09:48:01.105Z,1.30
2017-07-17T09:50:28.707Z,1.10
2017-07-17T09:52:56.249Z,1.20
2017-07-17T09:55:23.807Z,0.90
2017-07-17T09:57:51.375Z,1.20
2017-07-17T10:00:18.918Z,1.07
2017-07-17T10:02:46.462Z,1.43
2017-07-17T10:05:14.083Z,1.80
2017-07-17T10:07:42.389Z,1.80
2017-07-17T10:10:09.939Z,1.70
2017-07-17T10:12:37.551Z,1.80
2017-07-17T10:15:05.149Z,1.93
2017-07-17T10:17:32.710Z,1.83
2017-07-17T10:20:00.277Z,1.63
2017-07-17T10:22:28.257Z,2.00
2017-07-17T10:24:55.798Z,1.97
2017-07-17T10:27:23.430Z,2.30
2017-07-17T10:29:50.969Z,2.00
2017-07-17T10:32:18.513Z,2.23
2017-07-17T10:34:46.888Z,2.10
2017-07-17T10:37:14.438Z,1.93
2017-07-17T10:39:41.978Z,3.63
2017-07-17T10:42:09.543Z,2.70
2017-07-17T10:44:37.086Z,2.40
2017-07-17T10:47:05.393Z,2.43
2017-07-17T10:49:32.969Z,3.00
2017-07-17T10:52:00.505Z,4.70
2017-07-17T10:54:28.049Z,3.20
2017-07-17T10:56:55.673Z,2.77
2017-07-17T10:59:23.214Z,4.00
2017-07-17T11:01:50.758Z,2.80
2017-07-17T11:04:18.329Z,3.00
2017-07-17T11:06:45.874Z,2.70
2017-07-17T11:09:13.414Z,2.73
2017-07-17T11:11:41.022Z,2.70
2017-07-17T11:14:08.575Z,3.63
2017-07-17T11:16:36.165Z,3.37
2017-07-17T11:19:03.760Z,3.10
2017-07-17T11:21:31.305Z,2.90
2017-07-17T11:23:59.278Z,3.20
2017-07-17T11:26:26.845Z,2.70
2017-07-17T11:28:54.390Z,2.70
2017-07-17T11:31:22.707Z,2.57
2017-07-17T11:33:50.278Z,3.53
2017-07-17T11:36:17.823Z,2.77
2017-07-17T11:38:45.369Z,2.90
2017-07-17T11:41:12.972Z,2.20
2017-07-17T11:43:40.515Z,2.13
2017-07-17T11:56:19.924Z,2.70
2017-07-17T11:58:47.481Z,3.20
2017-07-17T12:01:15.090Z,2.80
2017-07-17T12:03:42.625Z,3.00
2017-07-17T12:06:10.164Z,2.73
2017-07-17T12:08:37.750Z,2.93
2017-07-17T12:11:05.285Z,2.60
2017-07-17T12:13:32.825Z,2.77
2017-07-17T12:16:00.631Z,2.10
2017-07-17T12:18:28.180Z,2.47
2017-07-17T12:20:55.718Z,2.37
2017-07-17T12:23:23.325Z,2.70
2017-07-17T12:25:51.078Z,2.33
2017-07-17T12:28:18.620Z,2.50
2017-07-17T12:30:46.193Z,2.40
2017-07-17T12:33:14.025Z,2.60
2017-07-17T12:35:45.067Z,2.50
2017-07-17T12:38:12.638Z,2.80
2017-07-17T12:40:41.020Z,2.90
2017-07-17T12:43:08.561Z,2.80
2017-07-17T12:45:38.634Z,2.80
2017-07-17T12:48:06.987Z,2.70
2017-07-17T12:50:34.534Z,2.57
2017-07-17T12:53:06.151Z,2.57
2017-07-17T12:55:35.707Z,2.77
2017-07-17T12:58:07.085Z,2.73
2017-07-17T13:00:36.019Z,2.70
2017-07-17T13:03:04.342Z,2.90
2017-07-17T13:05:32.022Z,2.93
2017-07-17T13:07:59.581Z,2.97
2017-07-17T13:10:27.144Z,2.90
2017-07-17T13:12:54.731Z,2.80
2017-07-17T13:15:22.273Z,2.80
2017-07-17T13:17:49.826Z,2.53
2017-07-17T13:20:19.116Z,2.37
2017-07-17T13:22:46.711Z,2.73
2017-07-17T13:25:14.314Z,3.00
2017-07-17T13:27:42.257Z,2.60
2017-07-17T13:30:09.815Z,2.37
2017-07-17T13:32:38.196Z,3.70
2017-07-17T13:35:05.827Z,2.50
2017-07-17T13:37:33.459Z,3.10
2017-07-17T13:40:01.022Z,2.90
2017-07-17T13:42:28.723Z,2.60
2017-07-17T13:44:57.044Z,2.70
2017-07-17T13:47:24.602Z,2.53
2017-07-17T13:49:52.237Z,2.50
2017-07-17T13:52:19.838Z,2.30
2017-07-17T13:54:47.393Z,3.00
2017-07-17T13:57:14.993Z,2.97
2017-07-17T13:59:43.341Z,2.90
2017-07-17T14:02:10.888Z,2.77
2017-07-17T14:04:38.485Z,2.67
2017-07-17T14:07:06.065Z,2.90
2017-07-17T14:09:35.549Z,2.70
2017-07-17T14:12:03.169Z,3.10
2017-07-17T14:14:30.755Z,2.93
2017-07-17T14:16:58.310Z,2.77
2017-07-17T14:19:25.930Z,2.70
2017-07-17T14:21:53.478Z,2.80
2017-07-17T14:24:21.261Z,2.60
2017-07-17T14:26:48.890Z,3.23
2017-07-17T14:29:16.853Z,2.70
2017-07-17T14:31:45.351Z,2.70
2017-07-17T14:34:13.034Z,2.80
2017-07-17T14:36:40.578Z,2.63
2017-07-17T14:39:08.121Z,3.37
2017-07-17T14:41:35.685Z,3.33
2017-07-17T14:44:04.015Z,3.00
2017-07-17T14:46:31.569Z,3.30
2017-07-17T14:48:59.222Z,3.17
2017-07-17T14:51:26.761Z,3.70
2017-07-17T14:53:54.306Z,3.40
2017-07-17T14:56:21.874Z,4.20
2017-07-17T14:58:49.417Z,3.23
2017-07-17T15:01:17.730Z,3.13
2017-07-17T15:03:45.306Z,3.33
2017-07-17T15:06:12.866Z,3.80
2017-07-17T15:08:40.422Z,3.80
2017-07-17T15:11:08.058Z,3.63
2017-07-17T15:13:35.603Z,3.43
2017-07-17T15:16:03.151Z,3.97
2017-07-17T15:18:31.497Z,3.60
2017-07-17T15:20:59.057Z,3.77
2017-07-17T15:23:26.600Z,3.67
2017-07-17T15:25:54.163Z,3.83
2017-07-17T15:28:21.726Z,3.80
2017-07-17T15:30:49.673Z,4.00
2017-07-17T15:33:17.335Z,3.40
2017-07-17T15:35:44.889Z,3.63
2017-07-17T15:38:12.556Z,3.70
2017-07-17T15:40:40.215Z,3.73
2017-07-17T15:43:07.762Z,3.83
2017-07-17T15:45:35.312Z,3.67
2017-07-17T15:48:02.882Z,3.70
2017-07-17T15:50:30.429Z,3.73
2017-07-17T15:52:57.969Z,3.60
2017-07-17T15:55:25.570Z,3.90
2017-07-17T15:57:53.995Z,2.97
2017-07-17T16:00:21.537Z,3.93
2017-07-17T16:02:49.103Z,3.00
2017-07-17T16:05:16.636Z,3.73
2017-07-17T16:07:44.173Z,3.47
2017-07-17T16:10:11.745Z,3.40
2017-07-17T16:12:39.286Z,3.67
2017-07-17T16:15:07.645Z,3.20
2017-07-17T16:17:35.443Z,3.10
2017-07-17T16:20:04.682Z,3.33
2017-07-17T16:22:32.217Z,3.00
2017-07-17T16:25:00.594Z,3.20
2017-07-17T16:27:28.138Z,3.43
2017-07-17T16:29:55.682Z,2.60
2017-07-17T16:32:23.758Z,3.10
2017-07-17T16:34:51.503Z,2.97
2017-07-17T16:37:19.061Z,3.03
2017-07-17T16:39:46.678Z,3.30
2017-07-17T16:42:14.218Z,3.10
2017-07-17T16:44:42.033Z,3.10
2017-07-17T16:47:09.634Z,3.40
2017-07-17T16:49:37.177Z,3.37
2017-07-17T16:52:05.323Z,3.37
2017-07-17T16:54:32.893Z,2.90
2017-07-17T16:57:01.097Z,2.90
2017-07-17T16:59:28.657Z,3.40
2017-07-17T17:01:57.097Z,3.53
2017-07-17T17:04:25.486Z,4.07
2017-07-17T17:06:53.063Z,3.23
2017-07-17T17:09:20.645Z,3.33
2017-07-17T17:11:48.189Z,3.20
2017-07-17T17:14:15.761Z,3.00
2017-07-17T17:16:43.385Z,3.20
2017-07-17T17:19:11.005Z,3.53
2017-07-17T17:21:41.228Z,3.40
2017-07-17T17:24:08.842Z,3.53
2017-07-17T17:26:36.390Z,3.20
2017-07-17T17:29:03.990Z,3.20
2017-07-17T17:31:32.403Z,3.20
2017-07-17T17:34:00.092Z,3.90
2017-07-17T17:36:27.644Z,3.60
2017-07-17T17:38:55.628Z,3.63
2017-07-17T17:41:23.168Z,3.87
2017-07-17T17:43:50.709Z,3.30
2017-07-17T17:46:18.331Z,4.10
2017-07-17T17:48:45.905Z,4.07
2017-07-17T17:51:13.441Z,3.73
2017-07-17T17:53:41.037Z,3.90
2017-07-17T17:56:08.836Z,4.00
2017-07-17T17:58:36.373Z,3.57
2017-07-17T18:01:03.985Z,3.53
2017-07-17T18:03:31.521Z,4.60
2017-07-17T18:05:59.062Z,4.63
2017-07-17T18:08:26.661Z,4.00
2017-07-17T18:10:54.193Z,4.30
2017-07-17T18:13:21.733Z,3.90
2017-07-17T18:15:53.607Z,4.80
2017-07-17T18:18:21.150Z,4.47
2017-07-17T18:20:48.700Z,4.77
2017-07-17T18:23:16.270Z,4.20
2017-07-17T18:25:43.810Z,4.20
2017-07-17T18:28:12.118Z,5.00
2017-07-17T18:30:39.733Z,4.60
2017-07-17T18:33:07.286Z,5.50
2017-07-17T18:35:35.029Z,5.10
2017-07-17T18:38:02.603Z,5.23
2017-07-17T18:40:30.141Z,5.40
2017-07-17T18:42:57.722Z,5.80
2017-07-17T18:45:25.469Z,6.00
2017-07-17T18:47:53.026Z,5.43
2017-07-17T18:50:20.577Z,5.00
2017-07-17T18:52:48.185Z,5.20
2017-07-17T18:55:15.777Z,5.13
2017-07-17T18:57:43.330Z,5.50
2017-07-17T19:00:10.903Z,5.43
2017-07-17T19:02:38.446Z,5.43
2017-07-17T19:05:06.826Z,5.53
2017-07-17T19:07:34.445Z,5.27
2017-07-17T19:10:02.007Z,5.90
2017-07-17T19:12:29.547Z,6.43
2017-07-17T19:14:57.178Z,6.43
2017-07-17T19:17:24.729Z,7.40
2017-07-17T19:19:52.277Z,6.33
2017-07-17T19:22:21.307Z,6.47
2017-07-17T19:24:48.884Z,5.60
2017-07-17T19:27:16.424Z,6.00
2017-07-17T19:29:44.224Z,6.80
2017-07-17T19:34:46.883Z,6.10
2017-07-17T19:37:14.723Z,6.90
2017-07-17T19:39:42.287Z,6.93
2017-07-17T19:42:10.662Z,6.20
2017-07-17T19:44:38.981Z,6.90
2017-07-17T19:47:06.545Z,7.77
2017-07-17T19:49:34.229Z,8.13
2017-07-17T19:52:01.995Z,7.20
2017-07-17T19:54:29.555Z,7.17
2017-07-17T19:56:57.189Z,8.20
2017-07-17T19:59:27.629Z,6.97
2017-07-17T20:01:55.182Z,7.63
2017-07-17T20:04:25.183Z,7.50
2017-07-17T20:06:52.741Z,7.73
2017-07-17T20:09:21.137Z,7.27
2017-07-17T20:11:48.709Z,9.00
2017-07-17T20:14:16.948Z,7.47
2017-07-17T20:16:44.525Z,7.20
2017-07-17T20:19:12.733Z,7.20
2017-07-17T20:21:40.332Z,7.50
2017-07-17T20:24:07.901Z,8.00
2017-07-17T20:26:35.497Z,7.87
2017-07-17T20:29:03.370Z,8.30
2017-07-17T20:31:30.942Z,8.30
2017-07-17T20:33:58.517Z,9.00
2017-07-17T20:36:26.073Z,8.20
2017-07-17T20:38:53.820Z,8.77
2017-07-17T20:41:21.465Z,7.83
2017-07-17T20:43:49.019Z,8.77
2017-07-17T20:46:16.594Z,9.23
2017-07-17T20:48:44.220Z,8.07
2017-07-17T20:51:11.797Z,7.87
2017-07-17T20:53:39.352Z,8.57
2017-07-17T20:56:07.029Z,8.40
2017-07-17T20:58:34.574Z,8.33
2017-07-17T21:01:02.118Z,8.33
2017-07-17T21:03:29.729Z,8.03
2017-07-17T21:05:57.270Z,7.90
2017-07-17T21:08:24.824Z,8.13
2017-07-17T21:10:52.419Z,8.37
2017-07-17T21:13:19.973Z,8.60
2017-07-17T21:15:47.514Z,8.73
2017-07-17T21:18:15.096Z,8.57
2017-07-17T21:20:42.649Z,8.07
2017-07-17T21:23:10.198Z,8.40
2017-07-17T21:25:37.868Z,8.00
2017-07-17T21:28:05.414Z,8.53
2017-07-17T21:30:32.958Z,8.50
2017-07-17T21:33:00.532Z,8.97
2017-07-17T21:35:28.126Z,8.93
2017-07-17T21:37:55.668Z,8.67
2017-07-17T21:40:23.487Z,8.97
2017-07-17T21:42:51.033Z,9.23
2017-07-17T21:45:18.582Z,9.30
2017-07-17T21:47:46.966Z,9.43
2017-07-17T21:50:15.286Z,9.73
2017-07-17T21:52:42.831Z,8.27
2017-07-17T21:55:10.407Z,8.00
2017-07-17T21:57:37.952Z,8.93
2017-07-17T22:00:05.494Z,8.87
2017-07-17T22:02:33.166Z,8.20
2017-07-17T22:05:00.712Z,9.47
2017-07-17T22:07:29.028Z,9.80
2017-07-17T22:09:56.673Z,9.40
2017-07-17T22:12:24.222Z,7.97
2017-07-17T22:14:51.770Z,9.10
2017-07-17T22:17:20.118Z,9.83
2017-07-17T22:19:47.657Z,9.43
2017-07-17T22:22:15.204Z,9.63
2017-07-17T22:24:42.770Z,9.20
2017-07-17T22:27:10.329Z,9.10
2017-07-17T22:29:37.873Z,9.37
2017-07-17T22:32:05.495Z,9.67
2017-07-17T22:34:33.809Z,10.77
2017-07-17T22:37:01.354Z,10.37
2017-07-17T22:39:28.975Z,10.17
2017-07-17T22:41:56.789Z,11.00
2017-07-17T22:44:24.338Z,10.00
2017-07-17T22:46:51.928Z,10.90
2017-07-17T22:49:19.473Z,11.00
2017-07-17T22:51:47.019Z,10.50
2017-07-17T22:54:14.686Z,11.90
2017-07-17T22:56:42.239Z,10.43
2017-07-17T22:59:10.553Z,11.90
2017-07-17T23:01:38.130Z,9.90
2017-07-17T23:04:05.674Z,11.60
2017-07-17T23:06:33.230Z,10.97
2017-07-17T23:09:00.857Z,10.30
2017-07-17T23:11:28.412Z,10.70
2017-07-17T23:13:55.957Z,9.93
2017-07-17T23:16:24.334Z,9.73
2017-07-17T23:18:51.882Z,10.13
2017-07-17T23:21:19.430Z,11.10
2017-07-17T23:23:47.006Z,9.93
2017-07-17T23:26:14.554Z,11.00
2017-07-17T23:28:42.114Z,11.23
2017-07-17T23:31:09.692Z,11.40
2017-07-17T23:33:38.024Z,10.70
2017-07-17T23:36:05.565Z,11.73
2017-07-17T23:38:33.181Z,10.00
2017-07-17T23:41:00.729Z,10.67
2017-07-17T23:43:28.641Z,12.40
2017-07-17T23:45:56.208Z,13.67
2017-07-17T23:48:23.758Z,11.77
2017-07-17T23:50:52.075Z,11.67
2017-07-17T23:53:19.677Z,11.63
2017-07-17T23:55:47.221Z,11.30
2017-07-17T23:58:14.770Z,11.80
